createdAt,value
2018-05-12T00:00:41.018Z,15.50
2018-05-12T00:03:15.693Z,15.30
2018-05-12T00:05:49.619Z,15.30
2018-05-12T00:08:23.589Z,15.30
2018-05-12T00:10:58.473Z,15.20
2018-05-12T00:13:33.251Z,15.20
2018-05-12T00:16:07.476Z,15.00
2018-05-12T00:18:42.225Z,15.00
2018-05-12T00:21:16.895Z,15.00
2018-05-12T00:23:50.774Z,15.00
2018-05-12T00:26:25.381Z,14.90
2018-05-12T00:28:59.812Z,14.80
2018-05-12T00:31:34.027Z,14.90
2018-05-12T00:34:08.735Z,14.90
2018-05-12T00:36:42.631Z,14.90
2018-05-12T00:39:16.854Z,14.80
2018-05-12T00:41:50.761Z,14.70
2018-05-12T00:44:25.279Z,14.70
2018-05-12T00:46:59.157Z,14.70
2018-05-12T00:49:33.295Z,14.70
2018-05-12T00:52:07.111Z,14.80
2018-05-12T00:54:40.964Z,14.80
2018-05-12T00:57:14.774Z,14.70
2018-05-12T00:59:49.470Z,14.70
2018-05-12T01:02:23.107Z,14.80
2018-05-12T01:04:57.125Z,14.70
2018-05-12T01:07:32.061Z,14.70
2018-05-12T01:10:06.041Z,14.70
2018-05-12T01:12:40.078Z,14.60
2018-05-12T01:15:14.088Z,14.60
2018-05-12T01:17:48.124Z,14.60
2018-05-12T01:20:22.135Z,14.60
2018-05-12T01:22:56.049Z,14.60
2018-05-12T01:25:30.017Z,14.50
2018-05-12T01:28:04.689Z,14.50
2018-05-12T01:30:39.517Z,14.50
2018-05-12T01:33:13.497Z,14.40
2018-05-12T01:35:47.589Z,14.50
2018-05-12T01:38:22.458Z,14.40
2018-05-12T01:40:56.297Z,14.40
2018-05-12T01:43:30.897Z,14.40
2018-05-12T01:46:05.579Z,14.40
2018-05-12T01:48:39.372Z,14.40
2018-05-12T01:51:13.199Z,14.40
2018-05-12T01:53:47.020Z,14.40
2018-05-12T01:56:20.807Z,14.40
2018-05-12T01:58:54.905Z,14.40
2018-05-12T02:01:29.387Z,14.40
2018-05-12T02:04:04.071Z,14.40
2018-05-12T02:06:38.018Z,14.30
2018-05-12T02:09:11.786Z,14.40
2018-05-12T02:11:45.648Z,14.40
2018-05-12T02:14:19.482Z,14.40
2018-05-12T02:16:53.400Z,14.40
2018-05-12T02:19:27.450Z,14.40
2018-05-12T02:22:02.086Z,14.40
2018-05-12T02:24:36.030Z,14.30
2018-05-12T02:27:10.768Z,14.40
2018-05-12T02:29:45.529Z,14.40
2018-05-12T02:32:19.338Z,14.40
2018-05-12T02:34:53.316Z,14.40
2018-05-12T02:37:27.324Z,14.30
2018-05-12T02:40:02.098Z,14.40
2018-05-12T02:42:35.831Z,14.40
2018-05-12T02:45:10.500Z,14.50
2018-05-12T02:47:44.289Z,14.40
2018-05-12T02:50:18.167Z,14.40
2018-05-12T02:52:51.942Z,14.40
2018-05-12T02:55:25.844Z,14.40
2018-05-12T02:58:01.283Z,14.30
2018-05-12T03:00:36.522Z,14.30
2018-05-12T03:03:10.605Z,14.20
2018-05-12T03:05:44.431Z,14.20
2018-05-12T03:08:18.283Z,14.20
2018-05-12T03:10:52.233Z,14.10
2018-05-12T03:13:26.849Z,14.10
2018-05-12T03:16:00.645Z,14.10
2018-05-12T03:18:34.528Z,14.00
2018-05-12T03:21:08.323Z,14.00
2018-05-12T03:23:42.112Z,14.00
2018-05-12T03:26:15.938Z,14.00
2018-05-12T03:28:49.867Z,14.00
2018-05-12T03:31:23.551Z,13.90
2018-05-12T03:33:57.429Z,13.80
2018-05-12T03:36:32.112Z,13.80
2018-05-12T03:39:06.845Z,13.80
2018-05-12T03:41:40.655Z,13.80
2018-05-12T03:44:15.216Z,13.70
2018-05-12T03:46:49.111Z,13.80
2018-05-12T03:49:23.041Z,13.80
2018-05-12T03:51:57.107Z,13.80
2018-05-12T03:54:30.943Z,13.70
2018-05-12T03:57:04.674Z,13.70
2018-05-12T03:59:38.472Z,13.70
2018-05-12T04:02:12.482Z,13.70
2018-05-12T04:04:58.901Z,13.60
2018-05-12T04:07:45.445Z,13.60
2018-05-12T04:13:23.332Z,13.60
2018-05-12T04:15:57.183Z,13.60
2018-05-12T04:18:31.400Z,13.60
2018-05-12T04:21:05.448Z,13.60
2018-05-12T04:23:39.088Z,13.60
2018-05-12T04:26:13.784Z,13.60
2018-05-12T04:28:47.637Z,13.60
2018-05-12T04:31:22.049Z,13.70
2018-05-12T04:33:56.017Z,13.70
2018-05-12T04:36:30.266Z,13.70
2018-05-12T04:39:04.948Z,13.80
2018-05-12T04:41:38.838Z,13.70
2018-05-12T04:44:12.606Z,13.80
2018-05-12T04:46:46.425Z,13.80
2018-05-12T04:49:21.078Z,13.90
2018-05-12T04:51:54.955Z,13.90
2018-05-12T04:54:28.858Z,13.90
2018-05-12T04:57:02.865Z,13.90
2018-05-12T04:59:36.803Z,14.00
2018-05-12T05:02:11.450Z,14.10
2018-05-12T05:04:52.386Z,14.00
2018-05-12T05:07:26.125Z,14.10
2018-05-12T05:10:00.883Z,14.10
2018-05-12T05:12:34.717Z,14.10
2018-05-12T05:15:26.154Z,14.20
2018-05-12T05:17:59.959Z,14.20
2018-05-12T05:20:34.043Z,14.30
2018-05-12T05:23:08.860Z,14.40
2018-05-12T05:25:42.879Z,14.40
2018-05-12T05:28:17.516Z,14.40
2018-05-12T05:30:52.159Z,14.50
2018-05-12T05:33:26.793Z,14.60
2018-05-12T05:36:00.649Z,14.60
2018-05-12T05:38:34.549Z,14.60
2018-05-12T05:41:08.421Z,14.60
2018-05-12T05:43:42.464Z,14.70
2018-05-12T05:46:17.235Z,14.80
2018-05-12T05:48:51.101Z,14.80
2018-05-12T05:51:24.955Z,14.90
2018-05-12T05:53:59.635Z,15.00
2018-05-12T05:56:33.359Z,15.00
2018-05-12T05:59:07.358Z,15.10
2018-05-12T06:01:41.980Z,15.30
2018-05-12T06:04:20.251Z,15.30
2018-05-12T06:06:54.419Z,15.40
2018-05-12T06:09:28.853Z,15.60
2018-05-12T06:12:02.793Z,15.60
2018-05-12T06:14:37.445Z,15.80
2018-05-12T06:17:11.309Z,15.80
2018-05-12T06:19:45.200Z,15.90
2018-05-12T06:22:19.902Z,16.10
2018-05-12T06:24:54.632Z,16.20
2018-05-12T06:27:28.393Z,16.20
2018-05-12T06:30:02.291Z,16.30
2018-05-12T06:32:36.201Z,16.40
2018-05-12T06:35:10.688Z,16.60
2018-05-12T06:37:45.752Z,16.60
2018-05-12T06:40:19.710Z,16.50
2018-05-12T06:42:53.498Z,16.70
2018-05-12T06:45:28.190Z,16.80
2018-05-12T06:48:02.170Z,16.80
2018-05-12T06:50:35.928Z,16.80
2018-05-12T06:53:09.584Z,16.90
2018-05-12T06:55:43.433Z,16.90
2018-05-12T06:58:17.087Z,17.10
2018-05-12T07:00:51.670Z,17.30
2018-05-12T07:03:25.362Z,17.30
2018-05-12T07:05:59.198Z,17.30
2018-05-12T07:08:33.115Z,17.30
2018-05-12T07:11:06.935Z,17.40
2018-05-12T07:13:41.494Z,17.50
2018-05-12T07:16:15.317Z,17.40
2018-05-12T07:18:49.260Z,17.60
2018-05-12T07:21:23.057Z,17.70
2018-05-12T07:23:56.887Z,17.80
2018-05-12T07:26:30.756Z,17.90
2018-05-12T07:29:04.603Z,18.00
2018-05-12T07:31:38.557Z,18.20
2018-05-12T07:34:13.155Z,18.30
2018-05-12T07:36:47.124Z,18.20
2018-05-12T07:39:20.839Z,18.30
2018-05-12T07:41:54.969Z,18.30
2018-05-12T07:44:28.714Z,18.30
2018-05-12T07:47:02.687Z,18.50
2018-05-12T07:49:36.452Z,18.60
2018-05-12T07:52:10.829Z,18.70
2018-05-12T07:54:44.545Z,18.80
2018-05-12T07:57:18.433Z,18.80
2018-05-12T07:59:53.228Z,18.80
2018-05-12T08:02:21.491Z,18.80
2018-05-12T08:04:49.693Z,18.90
2018-05-12T08:07:17.915Z,20.00
2018-05-12T08:09:46.141Z,21.00
2018-05-12T08:12:14.417Z,21.50
2018-05-12T08:14:42.628Z,21.50
2018-05-12T08:17:10.932Z,20.80
2018-05-12T08:19:39.135Z,20.60
2018-05-12T08:22:07.385Z,20.50
2018-05-12T08:24:35.640Z,20.20
2018-05-12T08:27:04.068Z,20.40
2018-05-12T08:29:32.351Z,20.20
2018-05-12T08:32:04.529Z,20.50
2018-05-12T08:34:33.656Z,21.00
2018-05-12T08:37:02.240Z,21.00
2018-05-12T08:39:30.520Z,21.10
2018-05-12T08:41:58.821Z,21.80
2018-05-12T08:44:28.303Z,21.80
2018-05-12T08:46:57.519Z,22.00
2018-05-12T08:49:25.733Z,22.40
2018-05-12T08:51:53.963Z,22.70
2018-05-12T08:54:22.230Z,23.20
2018-05-12T08:56:51.201Z,24.00
2018-05-12T08:59:19.425Z,24.30
2018-05-12T09:01:47.759Z,24.90
2018-05-12T09:04:15.988Z,25.00
2018-05-12T09:06:44.203Z,25.50
2018-05-12T09:09:12.374Z,25.20
2018-05-12T09:11:40.621Z,25.60
2018-05-12T09:14:09.589Z,26.60
2018-05-12T09:16:37.803Z,26.60
2018-05-12T09:19:06.060Z,26.90
2018-05-12T09:21:35.009Z,27.50
2018-05-12T09:24:03.237Z,27.50
2018-05-12T09:26:32.546Z,27.70
2018-05-12T09:29:01.684Z,27.70
2018-05-12T09:31:30.695Z,28.30
2018-05-12T09:33:59.764Z,28.90
2018-05-12T09:36:28.038Z,28.80
2018-05-12T09:38:56.295Z,28.00
2018-05-12T09:41:25.045Z,28.30
2018-05-12T09:43:54.085Z,29.40
2018-05-12T09:46:22.303Z,29.40
2018-05-12T09:48:51.325Z,29.70
2018-05-12T09:51:19.682Z,29.70
2018-05-12T09:53:48.653Z,29.60
2018-05-12T09:56:16.884Z,29.60
2018-05-12T09:58:45.118Z,30.30
2018-05-12T10:01:13.467Z,30.60
2018-05-12T10:03:41.652Z,31.20
2018-05-12T10:06:10.711Z,29.40
2018-05-12T10:08:38.940Z,29.30
2018-05-12T10:11:07.905Z,29.90
2018-05-12T10:13:44.963Z,29.80
2018-05-12T10:16:13.652Z,29.70
2018-05-12T10:18:41.901Z,29.80
2018-05-12T10:21:10.233Z,30.50
2018-05-12T10:23:39.309Z,30.80
2018-05-12T10:26:07.571Z,30.80
2018-05-12T10:28:35.855Z,31.10
2018-05-12T10:31:04.064Z,31.60
2018-05-12T10:33:33.074Z,32.70
2018-05-12T10:36:01.301Z,32.60
2018-05-12T10:38:29.477Z,33.10
2018-05-12T10:40:58.230Z,33.20
2018-05-12T10:43:26.466Z,32.90
2018-05-12T10:45:54.707Z,33.40
2018-05-12T10:48:22.982Z,33.60
2018-05-12T10:50:52.020Z,33.50
2018-05-12T10:53:20.262Z,33.40
2018-05-12T10:55:48.500Z,34.10
2018-05-12T10:58:16.736Z,34.30
2018-05-12T11:00:44.968Z,34.50
2018-05-12T11:03:13.189Z,34.90
2018-05-12T11:05:41.449Z,35.30
2018-05-12T11:08:09.750Z,35.30
2018-05-12T11:10:38.005Z,35.70
2018-05-12T11:13:06.297Z,36.50
2018-05-12T11:15:34.519Z,37.40
2018-05-12T11:18:02.725Z,38.10
2018-05-12T11:20:30.969Z,37.80
2018-05-12T11:22:59.299Z,36.00
2018-05-12T11:25:27.634Z,35.20
2018-05-12T11:27:56.593Z,35.20
2018-05-12T11:30:24.859Z,35.20
2018-05-12T11:32:53.050Z,36.70
2018-05-12T11:35:21.337Z,37.20
2018-05-12T11:37:50.389Z,39.10
2018-05-12T11:40:18.683Z,39.00
2018-05-12T11:42:47.606Z,39.60
2018-05-12T11:45:16.569Z,38.50
2018-05-12T11:47:44.786Z,38.50
2018-05-12T11:50:13.843Z,37.80
2018-05-12T11:52:42.840Z,36.90
2018-05-12T11:55:11.111Z,36.80
2018-05-12T11:57:39.299Z,35.30
2018-05-12T12:00:08.290Z,33.70
2018-05-12T12:02:37.300Z,32.90
2018-05-12T12:05:06.243Z,32.50
2018-05-12T12:07:34.438Z,32.40
2018-05-12T12:10:02.906Z,31.90
2018-05-12T12:12:31.102Z,31.30
2018-05-12T12:15:00.083Z,30.70
2018-05-12T12:17:28.253Z,30.70
2018-05-12T12:19:56.484Z,30.50
2018-05-12T12:22:24.717Z,30.10
2018-05-12T12:24:53.837Z,30.00
2018-05-12T12:27:22.049Z,30.00
2018-05-12T12:29:50.270Z,29.60
2018-05-12T12:32:19.239Z,29.50
2018-05-12T12:34:47.462Z,29.50
2018-05-12T12:37:15.692Z,29.40
2018-05-12T12:39:45.555Z,29.80
2018-05-12T12:42:13.796Z,29.80
2018-05-12T12:44:42.779Z,31.00
2018-05-12T12:47:11.825Z,31.50
2018-05-12T12:49:40.063Z,31.50
2018-05-12T12:52:09.116Z,34.40
2018-05-12T12:54:37.342Z,34.40
2018-05-12T12:57:05.563Z,35.80
2018-05-12T12:59:33.764Z,37.80
2018-05-12T13:02:02.833Z,38.90
2018-05-12T13:04:31.034Z,38.80
2018-05-12T13:07:00.065Z,40.70
2018-05-12T13:09:28.292Z,40.60
2018-05-12T13:11:56.581Z,39.80
2018-05-12T13:14:25.545Z,37.90
2018-05-12T13:16:53.781Z,37.90
2018-05-12T13:19:22.030Z,38.20
2018-05-12T13:21:50.211Z,38.10
2018-05-12T13:24:18.444Z,37.10
2018-05-12T13:26:46.692Z,36.80
2018-05-12T13:29:14.946Z,36.30
2018-05-12T13:31:43.146Z,36.50
2018-05-12T13:34:11.347Z,36.80
2018-05-12T13:36:40.336Z,37.30
2018-05-12T13:39:08.586Z,37.30
2018-05-12T13:41:36.853Z,37.60
2018-05-12T13:44:05.051Z,36.80
2018-05-12T13:46:33.243Z,36.30
2018-05-12T13:49:01.527Z,36.20
2018-05-12T13:51:29.755Z,35.60
2018-05-12T13:53:57.952Z,35.70
2018-05-12T13:56:27.263Z,34.20
2018-05-12T13:58:56.342Z,33.40
2018-05-12T14:01:24.735Z,33.40
2018-05-12T14:03:53.953Z,32.70
2018-05-12T14:06:22.165Z,32.70
2018-05-12T14:08:50.401Z,32.70
2018-05-12T14:11:18.676Z,33.00
2018-05-12T14:13:46.884Z,33.10
2018-05-12T14:16:15.110Z,33.00
2018-05-12T14:18:44.158Z,32.80
2018-05-12T14:21:12.736Z,32.80
2018-05-12T14:23:40.990Z,32.80
2018-05-12T14:26:09.232Z,32.90
2018-05-12T14:28:38.218Z,32.70
2018-05-12T14:31:07.161Z,32.80
2018-05-12T14:33:36.151Z,32.20
2018-05-12T14:36:04.334Z,32.10
2018-05-12T14:38:32.571Z,31.80
2018-05-12T14:41:00.775Z,31.30
2018-05-12T14:43:29.044Z,31.10
2018-05-12T14:45:57.296Z,30.70
2018-05-12T14:48:25.568Z,30.40
2018-05-12T14:50:53.963Z,30.30
2018-05-12T14:53:22.292Z,30.10
2018-05-12T14:55:51.275Z,29.70
2018-05-12T14:58:19.490Z,29.70
2018-05-12T15:00:47.736Z,29.60
2018-05-12T15:03:16.754Z,29.10
2018-05-12T15:05:44.976Z,29.00
2018-05-12T15:08:13.221Z,29.00
2018-05-12T15:10:41.454Z,28.80
2018-05-12T15:13:10.526Z,28.70
2018-05-12T15:15:38.776Z,28.60
2018-05-12T15:18:07.128Z,28.60
2018-05-12T15:20:35.488Z,28.50
2018-05-12T15:23:04.459Z,28.30
2018-05-12T15:25:33.497Z,28.30
2018-05-12T15:28:01.836Z,28.30
2018-05-12T15:30:32.595Z,28.10
2018-05-12T15:33:00.812Z,28.10
2018-05-12T15:35:29.020Z,28.00
2018-05-12T15:37:57.972Z,27.70
2018-05-12T15:40:27.088Z,27.60
2018-05-12T15:42:56.189Z,27.60
2018-05-12T15:45:24.361Z,27.60
2018-05-12T15:47:53.349Z,27.40
2018-05-12T15:50:22.373Z,27.20
2018-05-12T15:52:50.706Z,27.20
2018-05-12T15:55:18.952Z,27.10
2018-05-12T15:57:47.159Z,27.10
2018-05-12T16:00:15.403Z,27.10
2018-05-12T16:02:43.574Z,27.20
2018-05-12T16:05:11.832Z,27.10
2018-05-12T16:07:40.062Z,27.00
2018-05-12T16:10:09.445Z,26.70
2018-05-12T16:12:37.789Z,26.70
2018-05-12T16:15:06.068Z,26.80
2018-05-12T16:17:34.336Z,26.70
2018-05-12T16:20:02.571Z,26.60
2018-05-12T16:22:30.986Z,26.60
2018-05-12T16:24:59.171Z,26.60
2018-05-12T16:27:27.384Z,26.60
2018-05-12T16:29:56.674Z,26.40
2018-05-12T16:32:25.713Z,26.30
2018-05-12T16:34:53.945Z,26.30
2018-05-12T16:37:22.336Z,26.20
2018-05-12T16:39:50.589Z,26.10
2018-05-12T16:42:19.646Z,26.00
2018-05-12T16:44:47.912Z,26.00
2018-05-12T16:47:16.169Z,25.90
2018-05-12T16:49:44.439Z,25.70
2018-05-12T16:52:12.649Z,25.70
2018-05-12T16:54:40.880Z,25.60
2018-05-12T16:57:09.861Z,25.40
2018-05-12T16:59:38.819Z,25.40
2018-05-12T17:02:07.124Z,25.40
2018-05-12T17:04:36.111Z,25.40
2018-05-12T17:07:05.103Z,25.40
2018-05-12T17:09:34.155Z,25.40
2018-05-12T17:12:03.131Z,25.50
2018-05-12T17:14:31.356Z,25.50
2018-05-12T17:17:00.424Z,25.20
2018-05-12T17:19:28.663Z,25.20
2018-05-12T17:21:56.883Z,25.30
2018-05-12T17:24:25.092Z,25.10
2018-05-12T17:26:53.303Z,25.00
2018-05-12T17:29:21.969Z,25.00
2018-05-12T17:31:50.523Z,24.90
2018-05-12T17:34:19.526Z,24.80
2018-05-12T17:36:48.489Z,24.90
2018-05-12T17:39:17.465Z,25.00
2018-05-12T17:41:45.698Z,24.90
2018-05-12T17:44:14.141Z,24.90
2018-05-12T17:46:42.994Z,24.90
2018-05-12T17:49:11.193Z,24.90
2018-05-12T17:51:40.151Z,24.80
2018-05-12T17:54:08.354Z,24.80
2018-05-12T17:56:36.605Z,24.70
2018-05-12T17:59:04.809Z,24.70
2018-05-12T18:01:33.763Z,24.60
2018-05-12T18:04:02.043Z,24.60
2018-05-12T18:06:30.250Z,24.60
2018-05-12T18:08:58.877Z,24.50
2018-05-12T18:11:27.786Z,24.50
2018-05-12T18:13:55.904Z,24.50
2018-05-12T18:16:24.219Z,24.60
2018-05-12T18:18:52.341Z,24.50
2018-05-12T18:21:21.333Z,24.50
2018-05-12T18:23:50.300Z,24.30
2018-05-12T18:26:18.483Z,24.30
2018-05-12T18:28:46.704Z,24.30
2018-05-12T18:31:14.915Z,24.40
2018-05-12T18:33:43.128Z,24.50
2018-05-12T18:36:12.097Z,24.30
2018-05-12T18:38:40.390Z,24.30
2018-05-12T18:41:09.307Z,24.30
2018-05-12T18:43:37.576Z,24.30
2018-05-12T18:46:05.822Z,24.00
2018-05-12T18:48:34.871Z,23.50
2018-05-12T18:51:03.077Z,23.50
2018-05-12T18:53:31.303Z,23.40
2018-05-12T18:55:59.509Z,23.30
2018-05-12T18:58:27.716Z,23.10
2018-05-12T19:00:56.813Z,22.90
2018-05-12T19:03:25.854Z,22.90
2018-05-12T19:05:54.096Z,22.90
2018-05-12T19:08:22.502Z,22.90
2018-05-12T19:10:50.646Z,23.00
2018-05-12T19:13:19.059Z,23.50
2018-05-12T19:15:47.678Z,23.70
2018-05-12T19:18:15.931Z,23.80
2018-05-12T19:20:44.177Z,23.80
2018-05-12T19:23:12.389Z,23.70
2018-05-12T19:25:40.628Z,23.60
2018-05-12T19:28:08.834Z,23.50
2018-05-12T19:30:37.066Z,23.50
2018-05-12T19:33:05.300Z,23.50
2018-05-12T19:35:34.270Z,23.40
2018-05-12T19:38:02.518Z,23.40
2018-05-12T19:40:31.233Z,23.40
2018-05-12T19:43:00.158Z,23.40
2018-05-12T19:45:29.720Z,23.20
2018-05-12T19:47:59.654Z,23.10
2018-05-12T19:50:28.166Z,23.10
2018-05-12T19:52:56.963Z,23.00
2018-05-12T19:55:26.408Z,22.90
2018-05-12T19:57:55.395Z,22.80
2018-05-12T20:00:24.184Z,22.80
2018-05-12T20:02:53.504Z,22.60
2018-05-12T20:05:21.817Z,22.60
2018-05-12T20:07:50.517Z,22.70
2018-05-12T20:10:20.950Z,22.60
2018-05-12T20:12:50.341Z,22.60
2018-05-12T20:15:20.700Z,22.70
2018-05-12T20:17:51.529Z,22.60
2018-05-12T20:20:21.797Z,22.60
2018-05-12T20:22:50.134Z,22.50
2018-05-12T20:25:18.465Z,22.50
2018-05-12T20:27:46.734Z,22.50
2018-05-12T20:30:14.929Z,22.50
2018-05-12T20:32:43.199Z,22.40
2018-05-12T20:35:11.430Z,22.40
2018-05-12T20:37:39.669Z,22.40
2018-05-12T20:40:07.914Z,22.40
2018-05-12T20:42:36.123Z,22.40
2018-05-12T20:45:04.372Z,22.40
2018-05-12T20:47:32.644Z,22.30
2018-05-12T20:50:00.876Z,22.20
2018-05-12T20:52:29.957Z,22.20
2018-05-12T20:54:59.152Z,22.10
2018-05-12T20:57:27.724Z,22.00
2018-05-12T20:59:58.748Z,22.10
2018-05-12T21:02:26.957Z,22.20
2018-05-12T21:04:55.908Z,22.00
2018-05-12T21:07:24.138Z,22.00
2018-05-12T21:09:52.374Z,21.90
2018-05-12T21:12:20.684Z,21.80
2018-05-12T21:14:49.756Z,21.70
2018-05-12T21:17:18.914Z,21.70
2018-05-12T21:19:47.113Z,21.70
2018-05-12T21:22:15.327Z,21.60
2018-05-12T21:24:43.520Z,21.60
2018-05-12T21:27:11.733Z,20.80
2018-05-12T21:29:39.922Z,20.60
2018-05-12T21:32:08.917Z,20.10
2018-05-12T21:34:37.927Z,20.00
2018-05-12T21:37:06.170Z,20.00
2018-05-12T21:39:34.375Z,19.90
2018-05-12T21:42:02.571Z,19.90
2018-05-12T21:44:30.789Z,19.80
2018-05-12T21:46:59.131Z,19.70
2018-05-12T21:49:28.196Z,19.50
2018-05-12T21:51:56.412Z,19.50
2018-05-12T21:54:25.089Z,19.50
2018-05-12T21:56:53.418Z,19.30
2018-05-12T21:59:22.362Z,19.20
2018-05-12T22:01:50.625Z,19.20
2018-05-12T22:04:18.825Z,19.10
2018-05-12T22:06:47.021Z,19.10
2018-05-12T22:09:16.055Z,19.50
2018-05-12T22:11:44.293Z,19.50
2018-05-12T22:14:13.098Z,19.80
2018-05-12T22:16:41.361Z,19.90
2018-05-12T22:19:10.354Z,19.80
2018-05-12T22:21:38.631Z,19.80
2018-05-12T22:24:07.589Z,19.80
2018-05-12T22:26:35.895Z,19.80
2018-05-12T22:29:04.863Z,19.80
2018-05-12T22:31:34.126Z,19.70
2018-05-12T22:34:02.435Z,19.60
2018-05-12T22:36:30.740Z,19.90
2018-05-12T22:38:58.995Z,19.70
2018-05-12T22:41:28.099Z,19.30
2018-05-12T22:43:57.086Z,19.20
2018-05-12T22:46:26.081Z,19.10
2018-05-12T22:48:55.087Z,18.90
2018-05-12T22:51:23.321Z,18.90
2018-05-12T22:53:51.609Z,18.90
2018-05-12T22:56:19.808Z,18.90
2018-05-12T22:58:48.035Z,18.90
2018-05-12T23:01:16.271Z,18.80
2018-05-12T23:03:44.547Z,18.70
2018-05-12T23:06:12.778Z,18.70
2018-05-12T23:08:40.979Z,18.70
2018-05-12T23:11:09.216Z,18.70
2018-05-12T23:13:37.393Z,18.60
2018-05-12T23:16:05.845Z,18.60
2018-05-12T23:18:35.175Z,18.90
2018-05-12T23:21:03.398Z,18.80
2018-05-12T23:23:31.599Z,18.40
2018-05-12T23:25:59.859Z,18.20
2018-05-12T23:28:28.353Z,18.10
2018-05-12T23:30:56.997Z,18.30
2018-05-12T23:33:25.667Z,18.30
2018-05-12T23:35:54.841Z,18.40
2018-05-12T23:38:23.239Z,18.40
2018-05-12T23:41:04.768Z,18.50
2018-05-12T23:43:33.271Z,18.40
2018-05-12T23:46:04.963Z,18.20
2018-05-12T23:48:34.565Z,18.20
2018-05-12T23:51:06.588Z,18.00
2018-05-12T23:59:45.897Z,17.90
